Roanoke, Illinois
Current Conditions -  °F | °C
As of 3:35 AM on Wednesday 22 Oct 2014 (Local Time) from KC75 Reporting Station
Clear Clear  
Wind Chill: 33°   Ceiling: Unl
Heat Index: 33°   Visibility: 7mi
Dew Point: 32°   Wind: 0mph
Humidity: 97%   Direction: NA
Pressure: 30.28"   Gusts: NA
Location:  40.8°N, 89.2°W
Report Text: KC75 220835Z AUTO 00000KT 7SM CLR 00/00 A3028 RMK AO2 T00040000
Loading
Personal Weather Stations






























Interactive Weather Map
Tropical Storm Tracking
New forecast layout! Learn more

10-Day Weather Forecast

Advertisements
Track Severe Weather on mobile